createdAt,value
2023-01-29T00:02:22.776Z,10.73
2023-01-29T00:04:51.248Z,11.27
2023-01-29T00:07:18.759Z,10.52
2023-01-29T00:09:45.549Z,10.95
2023-01-29T00:12:31.509Z,11.30
2023-01-29T00:14:59.669Z,10.10
2023-01-29T00:17:26.467Z,9.70
2023-01-29T00:19:53.316Z,9.63
2023-01-29T00:22:20.674Z,8.80
2023-01-29T00:24:47.989Z,8.93
2023-01-29T00:27:14.998Z,8.77
2023-01-29T00:29:43.242Z,7.63
2023-01-29T00:32:10.034Z,7.80
2023-01-29T00:34:36.884Z,7.53
2023-01-29T00:37:03.734Z,7.30
2023-01-29T00:39:45.983Z,6.90
2023-01-29T00:42:14.197Z,7.13
2023-01-29T00:44:41.098Z,6.32
2023-01-29T00:47:09.771Z,6.78
2023-01-29T00:49:36.613Z,7.30
2023-01-29T00:52:03.722Z,6.70
2023-01-29T00:54:32.939Z,7.03
2023-01-29T00:57:00.150Z,7.30
2023-01-29T00:59:26.999Z,7.70
2023-01-29T01:01:54.067Z,7.88
2023-01-29T01:04:22.759Z,7.85
2023-01-29T01:06:49.732Z,7.63
2023-01-29T01:09:16.650Z,8.23
2023-01-29T01:11:44.011Z,8.25
2023-01-29T01:14:10.920Z,8.20
2023-01-29T01:16:37.923Z,8.13
2023-01-29T01:19:05.647Z,8.60
2023-01-29T01:21:34.150Z,8.50
2023-01-29T01:24:01.027Z,8.52
2023-01-29T01:26:28.023Z,8.73
2023-01-29T01:28:54.806Z,8.23
2023-01-29T01:31:21.917Z,8.40
2023-01-29T01:33:48.879Z,7.70
2023-01-29T01:36:15.803Z,8.30
2023-01-29T01:38:44.633Z,8.38
2023-01-29T01:41:17.802Z,8.55
2023-01-29T01:43:49.930Z,8.57
2023-01-29T01:46:16.950Z,8.63
2023-01-29T01:48:46.360Z,9.82
2023-01-29T01:51:15.074Z,10.55
2023-01-29T01:53:50.299Z,10.55
2023-01-29T01:56:22.814Z,9.95
2023-01-29T01:58:54.758Z,10.10
2023-01-29T02:01:25.729Z,10.77
2023-01-29T02:03:56.856Z,10.93
2023-01-29T02:06:24.078Z,11.75
2023-01-29T02:08:56.812Z,10.88
2023-01-29T02:11:24.662Z,11.07
2023-01-29T02:13:52.633Z,10.48
2023-01-29T02:16:23.971Z,10.68
2023-01-29T02:21:36.606Z,10.70
2023-01-29T02:24:32.857Z,10.52
2023-01-29T02:27:08.179Z,10.35
2023-01-29T02:29:45.684Z,11.25
2023-01-29T02:32:21.146Z,10.13
2023-01-29T02:35:00.547Z,10.13
2023-01-29T02:37:36.510Z,11.13
2023-01-29T02:40:12.713Z,10.15
2023-01-29T02:42:47.689Z,11.05
2023-01-29T02:45:22.623Z,10.88
2023-01-29T02:47:56.212Z,11.65
2023-01-29T02:50:28.361Z,12.45
2023-01-29T02:53:02.069Z,11.40
2023-01-29T02:55:34.706Z,11.57
2023-01-29T02:58:11.370Z,12.10
2023-01-29T03:00:42.944Z,12.90
2023-01-29T03:03:16.046Z,13.30
2023-01-29T03:05:50.479Z,14.52
2023-01-29T03:08:23.639Z,14.10
2023-01-29T03:10:56.096Z,14.10
2023-01-29T03:13:30.940Z,15.57
2023-01-29T03:16:05.708Z,14.32
2023-01-29T03:18:37.225Z,14.60
2023-01-29T03:21:11.188Z,14.93
2023-01-29T03:23:38.632Z,14.57
2023-01-29T03:26:07.705Z,14.60
2023-01-29T03:28:34.844Z,15.15
2023-01-29T03:31:10.071Z,15.80
2023-01-29T03:33:43.991Z,15.65
2023-01-29T03:36:16.877Z,15.98
2023-01-29T03:38:44.994Z,15.63
2023-01-29T03:41:23.316Z,16.42
2023-01-29T03:43:56.867Z,16.25
2023-01-29T03:46:30.994Z,15.88
2023-01-29T03:49:02.569Z,16.35
2023-01-29T03:51:35.081Z,15.82
2023-01-29T03:54:09.946Z,16.02
2023-01-29T03:56:51.362Z,16.23
2023-01-29T04:01:57.041Z,15.38
2023-01-29T04:04:28.199Z,15.88
2023-01-29T04:06:58.284Z,15.20
2023-01-29T04:09:31.108Z,16.10
2023-01-29T04:12:02.701Z,15.32
2023-01-29T04:14:31.483Z,15.25
2023-01-29T04:17:03.603Z,15.20
2023-01-29T04:19:30.668Z,14.73
2023-01-29T04:22:06.082Z,14.93
2023-01-29T04:24:34.633Z,14.63
2023-01-29T04:27:18.528Z,14.13
2023-01-29T04:29:57.013Z,14.32
2023-01-29T04:32:32.285Z,15.25
2023-01-29T04:35:17.430Z,13.25
2023-01-29T04:37:54.409Z,13.80
2023-01-29T04:40:26.083Z,13.60
2023-01-29T04:43:04.690Z,13.73
2023-01-29T04:45:43.489Z,13.15
2023-01-29T04:48:21.181Z,14.02
2023-01-29T04:50:58.388Z,14.10
2023-01-29T04:53:36.246Z,13.32
2023-01-29T04:56:13.559Z,14.88
2023-01-29T04:58:47.478Z,15.30
2023-01-29T05:01:19.412Z,13.95
2023-01-29T05:03:52.287Z,15.18
2023-01-29T05:06:20.555Z,14.77
2023-01-29T05:08:49.353Z,14.20
2023-01-29T05:11:18.985Z,14.73
2023-01-29T05:13:48.827Z,14.48
2023-01-29T05:16:28.179Z,15.65
2023-01-29T05:18:57.061Z,15.82
2023-01-29T05:21:24.959Z,15.63
2023-01-29T05:24:07.410Z,14.88
2023-01-29T05:26:35.286Z,16.40
2023-01-29T05:29:02.163Z,15.25
2023-01-29T05:31:29.166Z,14.48
2023-01-29T05:33:57.942Z,14.68
2023-01-29T05:36:25.184Z,13.65
2023-01-29T05:38:51.998Z,14.25
2023-01-29T05:41:19.921Z,15.32
2023-01-29T05:43:46.780Z,14.80
2023-01-29T05:46:13.948Z,15.48
2023-01-29T05:48:40.912Z,15.23
2023-01-29T05:51:09.213Z,17.10
2023-01-29T05:53:36.258Z,16.73
2023-01-29T05:56:04.027Z,17.73
2023-01-29T05:58:31.521Z,19.35
2023-01-29T06:00:58.449Z,19.45
2023-01-29T06:03:25.363Z,20.00
2023-01-29T06:05:52.352Z,21.52
2023-01-29T06:08:22.765Z,20.27
2023-01-29T06:10:49.629Z,20.53
2023-01-29T06:13:16.539Z,20.92
2023-01-29T06:15:52.887Z,21.38
2023-01-29T06:18:20.603Z,20.20
2023-01-29T06:20:49.669Z,21.35
2023-01-29T06:23:16.634Z,23.95
2023-01-29T06:25:45.138Z,22.52
2023-01-29T06:28:11.963Z,24.00
2023-01-29T06:30:38.878Z,24.20
2023-01-29T06:33:06.290Z,24.65
2023-01-29T06:35:33.201Z,25.83
2023-01-29T06:38:00.147Z,27.23
2023-01-29T06:40:27.239Z,28.30
2023-01-29T06:42:55.583Z,27.73
2023-01-29T06:45:23.072Z,28.85
2023-01-29T06:47:49.848Z,28.20
2023-01-29T06:50:18.049Z,28.42
2023-01-29T06:52:45.220Z,29.38
2023-01-29T06:55:12.666Z,29.40
2023-01-29T06:57:40.037Z,29.10
2023-01-29T07:00:11.127Z,27.88
2023-01-29T07:02:38.044Z,29.02
2023-01-29T07:05:05.867Z,27.88
2023-01-29T07:07:35.315Z,28.33
2023-01-29T07:10:02.477Z,27.08
2023-01-29T07:12:29.427Z,28.02
2023-01-29T07:14:56.329Z,27.52
2023-01-29T07:17:24.677Z,27.65
2023-01-29T07:19:51.844Z,27.65
2023-01-29T07:22:18.747Z,27.38
2023-01-29T07:24:45.498Z,27.52
2023-01-29T07:27:12.390Z,26.98
2023-01-29T07:29:40.588Z,26.25
2023-01-29T07:32:14.530Z,27.27
2023-01-29T07:34:43.458Z,26.08
2023-01-29T07:37:13.227Z,27.23
2023-01-29T07:39:40.045Z,26.38
2023-01-29T07:42:07.768Z,27.75
2023-01-29T07:44:34.589Z,27.30
2023-01-29T07:47:01.661Z,28.35
2023-01-29T07:49:28.561Z,29.13
2023-01-29T07:51:58.352Z,29.50
2023-01-29T07:54:25.265Z,29.75
2023-01-29T07:56:52.491Z,31.63
2023-01-29T07:59:19.455Z,31.77
2023-01-29T08:01:46.285Z,32.08
2023-01-29T08:04:46.272Z,32.80
2023-01-29T08:07:14.736Z,32.00
2023-01-29T08:09:44.549Z,32.35
2023-01-29T08:12:12.347Z,33.58
2023-01-29T08:14:42.065Z,34.17
2023-01-29T08:17:10.793Z,34.95
2023-01-29T08:19:38.041Z,34.05
2023-01-29T08:22:05.431Z,34.17
2023-01-29T08:24:47.738Z,33.33
2023-01-29T08:27:22.808Z,34.60
2023-01-29T08:29:49.657Z,34.72
2023-01-29T08:32:16.531Z,34.30
2023-01-29T08:34:43.210Z,34.10
2023-01-29T08:37:10.201Z,34.60
2023-01-29T08:39:38.650Z,35.38
2023-01-29T08:42:05.500Z,34.05
2023-01-29T08:44:32.692Z,34.83
2023-01-29T08:46:59.688Z,33.90
2023-01-29T08:49:28.224Z,34.65
2023-01-29T08:51:55.250Z,33.35
2023-01-29T08:54:22.230Z,33.20
2023-01-29T08:56:51.851Z,35.22
2023-01-29T08:59:18.828Z,33.40
2023-01-29T09:01:45.611Z,33.92
2023-01-29T09:04:12.328Z,33.75
2023-01-29T09:06:40.405Z,34.28
2023-01-29T09:09:07.170Z,34.92
2023-01-29T09:11:33.877Z,32.90
2023-01-29T09:14:02.503Z,32.90
2023-01-29T09:16:30.044Z,34.70
2023-01-29T09:18:56.898Z,33.55
2023-01-29T09:21:25.687Z,33.13
2023-01-29T09:23:52.541Z,32.65
2023-01-29T09:26:19.514Z,34.80
2023-01-29T09:28:48.839Z,31.35
2023-01-29T09:31:17.577Z,32.35
2023-01-29T09:33:44.426Z,33.38
2023-01-29T09:36:13.770Z,34.53
2023-01-29T09:38:40.611Z,32.97
2023-01-29T09:41:24.155Z,33.83
2023-01-29T09:43:58.091Z,33.85
2023-01-29T09:46:33.812Z,32.00
2023-01-29T09:49:06.253Z,33.10
2023-01-29T09:51:38.514Z,33.80
2023-01-29T09:54:17.338Z,35.47
2023-01-29T09:56:46.142Z,34.78
2023-01-29T09:59:17.190Z,35.33
2023-01-29T10:01:55.563Z,34.97
2023-01-29T10:04:50.567Z,35.75
2023-01-29T10:07:32.921Z,36.35
2023-01-29T10:10:16.215Z,36.50
2023-01-29T10:12:57.370Z,37.22
2023-01-29T10:15:38.332Z,36.05
2023-01-29T10:18:33.974Z,37.03
2023-01-29T10:21:11.540Z,35.92
2023-01-29T10:23:42.923Z,35.67
2023-01-29T10:28:42.950Z,35.15
2023-01-29T10:33:49.140Z,35.33
2023-01-29T10:36:34.772Z,35.17
2023-01-29T10:39:02.942Z,34.90
2023-01-29T10:41:56.370Z,37.67
2023-01-29T10:44:37.859Z,37.53
2023-01-29T10:47:31.926Z,36.67
2023-01-29T10:50:16.349Z,37.15
2023-01-29T10:53:04.685Z,33.38
2023-01-29T10:55:47.153Z,33.65
2023-01-29T10:58:26.843Z,34.33
2023-01-29T11:00:53.788Z,35.42
2023-01-29T11:03:28.418Z,34.78
2023-01-29T11:06:08.511Z,35.50
2023-01-29T11:08:43.612Z,32.88
2023-01-29T11:11:14.291Z,34.40
2023-01-29T11:13:46.675Z,35.30
2023-01-29T11:16:14.501Z,32.88
2023-01-29T11:18:56.485Z,32.55
2023-01-29T11:21:26.969Z,32.17
2023-01-29T11:24:15.107Z,31.47
2023-01-29T11:26:45.886Z,34.83
2023-01-29T11:29:42.518Z,31.67
2023-01-29T11:32:14.097Z,29.40
2023-01-29T11:34:57.759Z,30.67
2023-01-29T11:37:32.871Z,29.90
2023-01-29T11:39:59.821Z,28.95
2023-01-29T11:42:31.284Z,30.77
2023-01-29T11:44:58.110Z,29.50
2023-01-29T11:47:27.865Z,26.20
2023-01-29T11:49:56.275Z,25.60
2023-01-29T11:52:34.236Z,25.08
2023-01-29T11:55:05.429Z,23.33
2023-01-29T11:57:35.259Z,25.35
2023-01-29T12:00:05.185Z,23.90
2023-01-29T12:02:37.412Z,24.67
2023-01-29T12:05:15.652Z,25.30
2023-01-29T12:07:46.290Z,23.63
2023-01-29T12:10:30.710Z,24.52
2023-01-29T12:13:05.551Z,23.25
2023-01-29T12:15:32.311Z,23.10
2023-01-29T12:18:07.578Z,21.50
2023-01-29T12:20:39.439Z,21.48
2023-01-29T12:23:41.956Z,20.02
2023-01-29T12:26:12.948Z,19.48
2023-01-29T12:28:49.585Z,20.13
2023-01-29T12:31:27.050Z,19.90
2023-01-29T12:34:02.093Z,21.05
2023-01-29T12:36:38.456Z,22.25
2023-01-29T12:39:09.703Z,22.88
2023-01-29T12:41:46.551Z,24.38
2023-01-29T12:44:18.516Z,24.65
2023-01-29T12:46:49.425Z,24.52
2023-01-29T12:49:23.128Z,24.25
2023-01-29T12:52:00.442Z,25.08
2023-01-29T12:54:35.591Z,26.95
2023-01-29T12:57:11.436Z,27.48
2023-01-29T12:59:43.293Z,27.42
2023-01-29T13:02:23.618Z,26.98
2023-01-29T13:04:58.091Z,26.70
2023-01-29T13:07:32.908Z,28.02
2023-01-29T13:10:07.830Z,25.88
2023-01-29T13:12:36.199Z,26.45
2023-01-29T13:15:12.871Z,28.52
2023-01-29T13:17:45.210Z,29.63
2023-01-29T13:20:19.734Z,30.08
2023-01-29T13:22:49.504Z,30.27
2023-01-29T13:25:20.226Z,30.30
2023-01-29T13:27:48.902Z,30.83
2023-01-29T13:30:29.694Z,30.65
2023-01-29T13:32:59.310Z,30.27
2023-01-29T13:35:26.027Z,32.03
2023-01-29T13:37:54.977Z,31.20
2023-01-29T13:40:25.713Z,30.98
2023-01-29T13:42:54.872Z,29.83
2023-01-29T13:45:46.307Z,29.90
2023-01-29T13:48:26.585Z,31.05
2023-01-29T13:50:55.526Z,32.13
2023-01-29T13:53:28.022Z,31.63
2023-01-29T13:56:29.809Z,29.38
2023-01-29T13:58:58.221Z,28.17
2023-01-29T14:02:01.593Z,29.98
2023-01-29T14:04:30.157Z,29.70
2023-01-29T14:07:00.308Z,29.02
2023-01-29T14:10:01.061Z,31.13
2023-01-29T14:13:17.227Z,31.40
2023-01-29T14:15:45.035Z,31.00
2023-01-29T14:18:18.182Z,32.45
2023-01-29T14:21:02.381Z,32.08
2023-01-29T14:23:41.323Z,31.55
2023-01-29T14:26:24.381Z,29.35
2023-01-29T14:29:00.005Z,30.05
2023-01-29T14:31:32.283Z,30.75
2023-01-29T14:34:05.998Z,31.95
2023-01-29T14:36:40.287Z,31.92
2023-01-29T14:39:19.150Z,29.02
2023-01-29T14:41:46.098Z,31.80
2023-01-29T14:44:56.751Z,33.80
2023-01-29T14:48:03.167Z,34.20
2023-01-29T14:50:51.111Z,31.85
2023-01-29T14:53:30.288Z,33.50
2023-01-29T14:56:02.376Z,33.60
2023-01-29T14:58:39.086Z,35.08
2023-01-29T15:01:25.952Z,36.22
2023-01-29T15:03:58.752Z,37.28
2023-01-29T15:06:32.186Z,36.92
2023-01-29T15:09:05.557Z,37.42
2023-01-29T15:11:40.651Z,36.95
2023-01-29T15:14:18.857Z,38.67
2023-01-29T15:16:59.365Z,40.72
2023-01-29T15:19:31.920Z,30.53
2023-01-29T15:22:10.693Z,40.58
2023-01-29T15:24:38.981Z,39.05
2023-01-29T15:27:11.409Z,39.45
2023-01-29T15:29:39.552Z,38.78
2023-01-29T15:32:16.269Z,36.72
2023-01-29T15:34:43.918Z,36.50
2023-01-29T15:37:48.905Z,35.72
2023-01-29T15:40:20.127Z,34.45
2023-01-29T15:42:49.308Z,33.08
2023-01-29T15:45:33.507Z,32.50
2023-01-29T15:48:37.629Z,31.77
2023-01-29T15:51:08.747Z,32.90
2023-01-29T15:53:45.852Z,31.27
2023-01-29T15:56:16.404Z,31.88
2023-01-29T15:58:46.839Z,36.95
2023-01-29T16:01:14.163Z,35.30
2023-01-29T16:03:43.484Z,33.22
2023-01-29T16:06:11.861Z,34.10
2023-01-29T16:08:40.245Z,34.30
2023-01-29T16:11:08.770Z,36.20
2023-01-29T16:13:39.361Z,35.67
2023-01-29T16:16:19.861Z,35.00
2023-01-29T16:18:59.503Z,35.43
2023-01-29T16:21:30.715Z,34.47
2023-01-29T16:24:04.275Z,35.03
2023-01-29T16:26:35.261Z,34.97
2023-01-29T16:29:06.360Z,35.63
2023-01-29T16:31:35.660Z,37.53
2023-01-29T16:34:09.888Z,35.05
2023-01-29T16:36:46.697Z,35.78
2023-01-29T16:39:19.810Z,35.63
2023-01-29T16:42:19.264Z,35.35
2023-01-29T16:44:47.634Z,36.33
2023-01-29T16:47:20.599Z,36.17
2023-01-29T16:49:52.251Z,36.85
2023-01-29T16:52:23.622Z,36.75
2023-01-29T16:57:31.915Z,37.40
2023-01-29T17:00:04.444Z,36.80
2023-01-29T17:02:39.647Z,35.67
2023-01-29T17:05:18.158Z,35.95
2023-01-29T17:07:46.892Z,35.67
2023-01-29T17:10:20.011Z,35.35
2023-01-29T17:12:53.493Z,34.00
2023-01-29T17:15:33.066Z,34.10
2023-01-29T17:18:03.150Z,33.92
2023-01-29T17:20:34.322Z,34.33
2023-01-29T17:23:03.293Z,32.85
2023-01-29T17:25:30.307Z,32.63
2023-01-29T17:28:11.358Z,32.17
2023-01-29T17:31:05.768Z,31.35
2023-01-29T17:33:35.108Z,31.38
2023-01-29T17:36:13.151Z,30.33
2023-01-29T17:38:40.967Z,31.35
2023-01-29T17:41:12.061Z,32.20
2023-01-29T17:43:38.895Z,30.13
2023-01-29T17:46:05.974Z,29.80
2023-01-29T17:48:32.922Z,29.73
2023-01-29T17:51:03.664Z,29.95
2023-01-29T17:53:47.347Z,28.77
2023-01-29T17:56:16.552Z,27.25
2023-01-29T17:58:43.612Z,28.67
2023-01-29T18:01:10.523Z,27.45
2023-01-29T18:03:38.152Z,27.90
2023-01-29T18:06:10.389Z,25.85
2023-01-29T18:08:40.901Z,26.80
2023-01-29T18:11:12.400Z,26.93
2023-01-29T18:13:39.192Z,26.77
2023-01-29T18:16:06.692Z,27.73
2023-01-29T18:18:33.517Z,27.52
2023-01-29T18:21:00.508Z,28.05
2023-01-29T18:23:27.539Z,29.00
2023-01-29T18:25:59.636Z,28.35
2023-01-29T18:28:26.581Z,30.08
2023-01-29T18:30:53.813Z,31.27
2023-01-29T18:33:21.551Z,31.45
2023-01-29T18:35:48.923Z,31.35
2023-01-29T18:38:17.102Z,30.02
2023-01-29T18:40:46.285Z,30.30
2023-01-29T18:43:17.069Z,31.42
2023-01-29T18:45:44.482Z,33.13
2023-01-29T18:48:11.652Z,33.38
2023-01-29T18:50:38.403Z,34.10
2023-01-29T18:53:09.590Z,32.92
2023-01-29T18:55:54.038Z,32.72
2023-01-29T18:58:25.501Z,33.75
2023-01-29T19:00:55.290Z,31.77
2023-01-29T19:03:22.578Z,32.20
2023-01-29T19:05:50.277Z,34.08
2023-01-29T19:08:17.360Z,32.25
2023-01-29T19:10:44.231Z,33.45
2023-01-29T19:13:11.238Z,31.75
2023-01-29T19:15:43.644Z,32.50
2023-01-29T19:18:12.069Z,32.85
2023-01-29T19:20:41.137Z,32.58
2023-01-29T19:23:11.434Z,31.77
2023-01-29T19:25:40.508Z,31.27
2023-01-29T19:28:07.613Z,30.67
2023-01-29T19:30:38.000Z,32.03
2023-01-29T19:33:14.692Z,30.75
2023-01-29T19:35:45.966Z,31.77
2023-01-29T19:40:39.583Z,28.25
2023-01-29T19:43:06.626Z,28.98
2023-01-29T19:45:49.976Z,31.02
2023-01-29T19:48:19.421Z,30.20
2023-01-29T19:50:52.269Z,30.23
2023-01-29T19:53:21.941Z,31.02
2023-01-29T19:55:56.409Z,30.73
2023-01-29T19:58:23.516Z,30.25
2023-01-29T20:00:54.768Z,30.38
2023-01-29T20:03:24.053Z,29.52
2023-01-29T20:05:51.029Z,30.73
2023-01-29T20:08:19.929Z,31.60
2023-01-29T20:10:47.788Z,31.90
2023-01-29T20:13:15.506Z,31.27
2023-01-29T20:15:44.372Z,32.22
2023-01-29T20:18:12.377Z,31.77
2023-01-29T20:20:41.624Z,32.97
2023-01-29T20:23:09.289Z,32.42
2023-01-29T20:25:36.609Z,33.45
2023-01-29T20:28:04.398Z,33.13
2023-01-29T20:30:32.134Z,34.30
2023-01-29T20:32:59.295Z,33.80
2023-01-29T20:35:27.109Z,35.78
2023-01-29T20:37:55.561Z,32.42
2023-01-29T20:40:22.745Z,34.47
2023-01-29T20:42:49.833Z,32.30
2023-01-29T20:45:17.728Z,33.65
2023-01-29T20:47:45.473Z,32.88
2023-01-29T20:50:14.839Z,34.15
2023-01-29T20:52:42.524Z,33.35
2023-01-29T20:55:15.415Z,33.20
2023-01-29T20:57:42.823Z,34.03
2023-01-29T21:00:12.035Z,33.80
2023-01-29T21:02:39.486Z,33.17
2023-01-29T21:05:07.128Z,31.80
2023-01-29T21:07:34.123Z,32.95
2023-01-29T21:10:02.278Z,33.30
2023-01-29T21:12:30.722Z,32.17
2023-01-29T21:14:57.478Z,32.75
2023-01-29T21:17:26.686Z,31.17
2023-01-29T21:19:54.687Z,32.30
2023-01-29T21:22:21.751Z,30.80
2023-01-29T21:24:48.656Z,31.85
2023-01-29T21:27:15.704Z,32.15
2023-01-29T21:29:44.034Z,30.42
2023-01-29T21:32:10.962Z,30.25
2023-01-29T21:34:37.809Z,31.63
2023-01-29T21:37:04.557Z,29.67
2023-01-29T21:39:32.925Z,28.30
2023-01-29T21:42:00.039Z,28.48
2023-01-29T21:44:27.459Z,27.10
2023-01-29T21:46:56.284Z,29.00
2023-01-29T21:49:23.777Z,26.52
2023-01-29T21:51:51.291Z,26.63
2023-01-29T21:54:18.386Z,26.25
2023-01-29T21:56:45.186Z,25.88
2023-01-29T21:59:11.962Z,26.13
2023-01-29T22:01:38.984Z,25.33
2023-01-29T22:04:07.706Z,24.98
2023-01-29T22:06:34.474Z,24.15
2023-01-29T22:09:01.508Z,25.33
2023-01-29T22:11:28.542Z,23.40
2023-01-29T22:13:55.330Z,23.40
2023-01-29T22:16:24.235Z,24.20
2023-01-29T22:18:51.002Z,23.02
2023-01-29T22:21:19.890Z,22.27
2023-01-29T22:23:48.489Z,22.25
2023-01-29T22:26:15.860Z,23.92
2023-01-29T22:28:42.937Z,21.45
2023-01-29T22:31:10.480Z,22.92
2023-01-29T22:33:37.425Z,20.33
2023-01-29T22:36:05.185Z,21.38
2023-01-29T22:38:33.359Z,20.02
2023-01-29T22:41:02.560Z,19.08
2023-01-29T22:43:30.447Z,19.50
2023-01-29T22:45:57.327Z,18.58
2023-01-29T22:48:24.722Z,18.08
2023-01-29T22:50:56.420Z,16.67
2023-01-29T22:53:23.688Z,16.73
2023-01-29T22:55:55.513Z,16.95
2023-01-29T22:58:22.916Z,16.23
2023-01-29T23:00:52.548Z,15.50
2023-01-29T23:03:20.111Z,14.93
2023-01-29T23:05:46.853Z,15.70
2023-01-29T23:08:13.953Z,14.80
2023-01-29T23:10:42.904Z,15.63
2023-01-29T23:13:12.701Z,15.68
2023-01-29T23:15:39.774Z,14.23
2023-01-29T23:18:06.682Z,13.70
2023-01-29T23:20:33.673Z,13.27
2023-01-29T23:23:00.783Z,11.90
2023-01-29T23:25:27.512Z,12.00
2023-01-29T23:27:54.298Z,10.75
2023-01-29T23:30:22.545Z,9.90
2023-01-29T23:32:49.741Z,9.48
2023-01-29T23:35:16.759Z,9.60
2023-01-29T23:37:43.675Z,9.00
2023-01-29T23:40:11.903Z,8.80
2023-01-29T23:42:47.711Z,7.55
2023-01-29T23:45:14.907Z,8.15
2023-01-29T23:47:43.158Z,7.63
2023-01-29T23:50:11.458Z,8.07
2023-01-29T23:52:40.326Z,9.23
2023-01-29T23:55:09.717Z,7.78
2023-01-29T23:57:38.434Z,7.78
